Time;durP1;ratioP1;P1;durP2;ratioP2;P2;SDS_P1;SDS_P2;PMS_P1;PMS_P2;Temp;Humidity;BMP_temperature;BMP_pressure;BME280_temperature;BME280_humidity;BME280_pressure;Samples;Min_cycle;Max_cycle;Signal;HPM_P1;HPM_P2
2023/01/15 06:12:22;;;;;;;55.40;21.50;;;;;;;-2.54;100.00;100115.00;104797;1306;544866;-66
2023/01/15 06:14:50;;;;;;;47.00;20.40;;;;;;;-2.39;100.00;100124.03;106622;1289;22667;-66
2023/01/15 06:17:16;;;;;;;38.90;18.30;;;;;;;-2.22;100.00;100128.98;106593;1289;22708;-66
2023/01/15 06:19:43;;;;;;;35.60;18.20;;;;;;;-2.09;100.00;100126.71;106612;1289;25452;-66
2023/01/15 06:22:10;;;;;;;33.40;18.50;;;;;;;-1.96;100.00;100126.54;106674;1289;22591;-66
2023/01/15 06:24:37;;;;;;;30.80;16.00;;;;;;;-1.84;100.00;100128.33;106690;1289;24825;-66
2023/01/15 06:27:04;;;;;;;24.50;14.00;;;;;;;-1.76;100.00;100130.83;106697;1287;240500;-67
2023/01/15 06:29:32;;;;;;;18.80;11.40;;;;;;;-1.67;100.00;100128.95;106859;1287;24366;-67
2023/01/15 06:31:59;;;;;;;19.40;11.40;;;;;;;-1.61;100.00;100132.98;106256;1287;23879;-66
2023/01/15 06:34:26;;;;;;;19.50;12.10;;;;;;;-1.54;100.00;100137.44;106433;1287;22565;-67
2023/01/15 06:36:53;;;;;;;20.60;12.50;;;;;;;-1.49;100.00;100134.79;106556;1287;24385;-66
2023/01/15 06:39:20;;;;;;;19.40;11.90;;;;;;;-1.43;100.00;100133.52;106531;1287;22570;-67
2023/01/15 06:47:21;;;;;;;19.20;12.10;;;;;;;-1.36;100.00;100137.95;106911;1287;22866;-67
2023/01/15 06:49:56;;;;;;;18.80;11.70;;;;;;;-1.36;100.00;100138.13;106655;1286;22545;-67
2023/01/15 06:52:24;;;;;;;17.80;11.00;;;;;;;-1.30;100.00;100134.06;106901;1287;24330;-67
2023/01/15 06:54:52;;;;;;;22.40;12.80;;;;;;;-1.27;100.00;100133.15;106696;1287;25513;-67
2023/01/15 06:57:19;;;;;;;18.40;11.70;;;;;;;-1.24;100.00;100133.52;106519;1287;23875;-67
2023/01/15 06:59:47;;;;;;;19.10;11.80;;;;;;;-1.28;100.00;100132.07;106661;1287;24294;-67
2023/01/15 07:02:14;;;;;;;17.00;11.30;;;;;;;-1.30;100.00;100132.13;107782;1287;22779;-66
2023/01/15 07:04:41;;;;;;;17.80;11.70;;;;;;;-1.25;100.00;100134.16;106665;1287;22654;-67
2023/01/15 07:07:08;;;;;;;17.70;11.10;;;;;;;-1.22;100.00;100137.36;106772;1286;22596;-67
2023/01/15 07:09:36;;;;;;;19.00;11.40;;;;;;;-1.23;100.00;100139.08;106634;1286;25276;-67
2023/01/15 07:12:03;;;;;;;17.70;10.50;;;;;;;-1.27;100.00;100138.08;106655;1287;24242;-66
2023/01/15 07:14:30;;;;;;;17.90;10.80;;;;;;;-1.25;100.00;100134.62;106728;1287;22575;-67
2023/01/15 07:16:58;;;;;;;18.80;11.20;;;;;;;-1.21;100.00;100138.05;106652;1287;24275;-67
2023/01/15 07:19:26;;;;;;;17.00;10.50;;;;;;;-1.18;100.00;100139.16;106537;1287;22655;-66
2023/01/15 07:21:53;;;;;;;17.80;11.60;;;;;;;-1.19;100.00;100137.89;106463;1288;22829;-66
2023/01/15 07:24:20;;;;;;;20.00;11.80;;;;;;;-1.20;100.00;100138.30;106493;1288;22741;-67
2023/01/15 07:26:47;;;;;;;16.80;10.40;;;;;;;-1.14;100.00;100138.79;106506;1288;24244;-67
2023/01/15 07:29:14;;;;;;;18.40;11.80;;;;;;;-1.09;100.00;100140.46;106554;1288;25442;-67
2023/01/15 07:31:41;;;;;;;18.30;12.10;;;;;;;-1.10;100.00;100140.77;106489;1288;22543;-67
2023/01/15 07:34:08;;;;;;;20.10;12.90;;;;;;;-1.12;100.00;100142.91;106560;1288;22589;-67
2023/01/15 07:36:36;;;;;;;22.00;12.80;;;;;;;-1.11;100.00;100143.30;106687;1288;24226;-67
2023/01/15 07:39:04;;;;;;;23.50;13.70;;;;;;;-1.09;100.00;100137.50;106641;1288;22582;-66
2023/01/15 14:21:01;;;;;;;53.50;23.60;;;;;;;-1.86;100.00;99810.86;103742;1305;545711;-66
2023/01/15 14:23:37;;;;;;;44.90;20.30;;;;;;;-1.69;100.00;99823.69;105873;1290;22599;-65
2023/01/15 14:26:11;;;;;;;39.80;19.30;;;;;;;-1.54;100.00;99816.52;106300;1284;22664;-66
2023/01/15 14:28:41;;;;;;;34.50;17.50;;;;;;;-1.41;100.00;99818.04;109738;1284;22250;-67
2023/01/15 14:31:17;;;;;;;33.20;17.30;;;;;;;-1.31;100.00;99814.37;109775;1282;22226;-67
2023/01/15 14:33:50;;;;;;;27.60;15.10;;;;;;;-1.21;100.00;99802.45;109393;1281;410629;-68
2023/01/15 14:36:19;;;;;;;33.70;17.20;;;;;;;-1.13;100.00;99797.50;109926;1281;22336;-68
2023/01/15 14:38:47;;;;;;;32.40;17.60;;;;;;;-1.10;100.00;99796.29;109849;1281;22397;-67
2023/01/15 14:41:14;;;;;;;29.70;16.60;;;;;;;-1.03;100.00;99795.26;109840;1281;22383;-67
2023/01/15 14:43:47;;;;;;;26.90;13.80;;;;;;;-0.98;100.00;99792.70;109867;1281;22267;-69
2023/01/15 14:46:33;;;;;;;28.80;16.30;;;;;;;-0.92;100.00;99792.41;109857;1281;22276;-67
2023/01/15 14:49:00;;;;;;;28.10;15.90;;;;;;;-0.88;100.00;99792.30;107691;1281;25357;-67
2023/01/15 14:51:28;;;;;;;24.20;14.00;;;;;;;-0.93;100.00;99793.43;106655;1282;24242;-67
2023/01/15 14:54:09;;;;;;;24.60;14.30;;;;;;;-0.92;100.00;99790.31;107064;1282;22584;-67
2023/01/15 14:56:40;;;;;;;25.10;12.70;;;;;;;-0.88;100.00;99794.73;107202;1282;25477;-67
2023/01/15 14:59:09;;;;;;;22.50;12.60;;;;;;;-0.86;100.00;99792.20;107055;1282;22560;-67
2023/01/15 15:02:30;;;;;;;21.20;12.30;;;;;;;-0.90;100.00;99788.64;107189;1282;25389;-67
2023/01/15 15:04:58;;;;;;;22.50;13.10;;;;;;;-0.91;100.00;99792.36;107000;1282;22537;-67
2023/01/15 15:07:34;;;;;;;23.80;13.40;;;;;;;-0.91;100.00;99792.13;107238;1282;24222;-68
2023/01/15 15:10:23;;;;;;;20.80;12.40;;;;;;;-0.90;100.00;99795.25;107291;1282;22576;-67
2023/01/15 15:13:06;;;;;;;25.30;14.30;;;;;;;-0.89;100.00;99795.77;107078;1282;22655;-67
2023/01/15 15:15:35;;;;;;;31.90;16.20;;;;;;;-0.94;100.00;99799.14;106988;1282;23463;-67
2023/01/15 15:18:11;;;;;;;27.30;15.50;;;;;;;-0.93;100.00;99797.05;107245;1267;22539;-67
2023/01/15 15:20:48;;;;;;;21.10;13.40;;;;;;;-0.92;100.00;99797.99;107053;1282;22566;-69
2023/01/15 15:23:17;;;;;;;24.80;15.30;;;;;;;-0.92;100.00;99796.30;107105;1282;22536;-67
2023/01/15 15:25:57;;;;;;;22.90;14.00;;;;;;;-0.95;100.00;99799.59;107251;1281;22887;-67
2023/01/15 15:28:25;;;;;;;21.40;13.60;;;;;;;-1.01;100.00;99794.83;107207;1281;22554;-67
2023/01/15 15:30:53;;;;;;;24.20;14.90;;;;;;;-1.00;100.00;99799.55;107104;1281;22657;-67
2023/01/15 15:33:21;;;;;;;25.00;13.90;;;;;;;-0.95;100.00;99800.69;107054;1281;23277;-67
2023/01/15 15:35:53;;;;;;;19.20;12.40;;;;;;;-0.92;100.00;99805.44;107256;1277;22556;-65
2023/01/15 15:38:21;;;;;;;18.20;12.60;;;;;;;-0.91;100.00;99806.42;107213;1281;22662;-66
2023/01/15 15:40:50;;;;;;;19.80;12.30;;;;;;;-0.96;100.00;99809.48;107066;1281;22536;-67
2023/01/15 15:49:08;;;;;;;18.40;12.50;;;;;;;-0.90;100.00;99803.44;109838;1281;22396;-67
2023/01/15 15:51:39;;;;;;;21.70;14.50;;;;;;;-0.92;100.00;99801.16;109921;1279;22249;-67
2023/01/15 20:16:58;;;;;;;29.00;14.10;;;;;;;-2.74;100.00;99609.79;103489;1304;545586;-66
2023/01/15 20:19:25;;;;;;;30.60;14.20;;;;;;;-2.63;100.00;99613.67;109541;1289;22434;-66
2023/01/15 20:21:52;;;;;;;21.80;12.30;;;;;;;-2.47;100.00;99613.02;109487;1290;22304;-67
2023/01/15 20:24:19;;;;;;;19.80;11.30;;;;;;;-2.33;100.00;99615.15;109536;1289;22927;-66
2023/01/15 20:26:46;;;;;;;20.30;10.80;;;;;;;-2.22;100.00;99617.96;109455;1290;22303;-66
2023/01/15 20:29:13;;;;;;;16.40;9.00;;;;;;;-2.11;100.00;99620.34;109449;1282;22897;-67
2023/01/15 20:31:41;;;;;;;12.00;7.40;;;;;;;-2.02;100.00;99617.05;109450;1287;291483;-66
2023/01/15 20:34:08;;;;;;;14.00;7.20;;;;;;;-1.94;100.00;99616.36;109669;1287;23038;-67
2023/01/15 20:36:35;;;;;;;10.40;6.30;;;;;;;-1.89;100.00;99608.72;109659;1287;22640;-67
2023/01/15 20:39:03;;;;;;;11.70;6.90;;;;;;;-1.87;100.00;99604.30;109674;1287;23481;-67
2023/01/15 20:49:23;;;;;;;11.60;6.80;;;;;;;-1.74;100.00;99612.39;106737;1287;24244;-67
2023/01/15 20:49:50;;;;;;;9.90;6.30;;;;;;;-1.72;100.00;99621.77;106611;1287;25399;-66
2023/01/15 20:52:17;;;;;;;13.10;7.20;;;;;;;-1.75;100.00;99621.39;106706;1287;22542;-67
2023/01/15 20:54:44;;;;;;;10.30;6.20;;;;;;;-1.79;100.00;99624.36;106635;1287;23221;-66
2023/01/15 20:57:11;;;;;;;11.50;7.00;;;;;;;-1.76;100.00;99627.98;106768;1287;25417;-67
2023/01/15 20:59:38;;;;;;;11.20;6.00;;;;;;;-1.74;100.00;99630.59;107074;1287;22568;-66
2023/01/15 21:02:06;;;;;;;10.50;6.40;;;;;;;-1.74;100.00;99632.11;107024;1284;22558;-67
2023/01/15 21:04:33;;;;;;;8.90;6.20;;;;;;;-1.79;100.00;99624.90;106683;1284;22571;-66
2023/01/15 21:07:00;;;;;;;10.80;7.00;;;;;;;-1.87;100.00;99623.11;107286;1284;22853;-66
2023/01/15 21:09:27;;;;;;;12.80;6.90;;;;;;;-1.88;100.00;99619.33;106633;1284;22570;-67
2023/01/15 21:11:54;;;;;;;10.00;6.50;;;;;;;-1.87;100.00;99618.17;106895;1284;22533;-66
2023/01/15 21:14:22;;;;;;;10.20;6.10;;;;;;;-1.88;100.00;99616.13;106991;1284;22537;-67
2023/01/15 21:16:50;;;;;;;10.90;6.60;;;;;;;-1.92;100.00;99613.67;106866;1285;22522;-66
2023/01/15 21:19:17;;;;;;;11.90;7.00;;;;;;;-1.92;100.00;99620.36;106706;1285;24202;-66
2023/01/15 21:21:44;;;;;;;10.90;6.70;;;;;;;-1.89;100.00;99621.81;106908;1285;22549;-66
2023/01/15 21:24:11;;;;;;;13.00;6.70;;;;;;;-1.88;100.00;99619.48;106724;1285;23332;-67
2023/01/15 21:26:38;;;;;;;11.80;6.70;;;;;;;-1.87;100.00;99624.00;106647;1285;24239;-66
2023/01/15 21:29:05;;;;;;;11.20;7.10;;;;;;;-1.92;100.00;99625.03;106809;1285;23312;-67
2023/01/15 21:31:32;;;;;;;12.60;6.90;;;;;;;-1.98;100.00;99626.35;106851;1284;22578;-67
2023/01/15 21:33:59;;;;;;;14.20;7.60;;;;;;;-1.99;100.00;99631.56;106884;1284;23107;-66
2023/01/15 21:36:27;;;;;;;14.10;7.30;;;;;;;-1.94;100.00;99623.10;106620;1279;22715;-66
2023/01/15 21:38:55;;;;;;;12.00;7.20;;;;;;;-1.92;100.00;99622.52;106647;1285;25576;-66
2023/01/15 21:44:30;;;;;;;14.30;7.80;;;;;;;-2.00;100.00;99620.88;106801;1285;22920;-67
2023/01/15 21:46:58;;;;;;;14.10;7.80;;;;;;;-1.95;100.00;99615.66;109736;1285;22280;-67
2023/01/15 21:49:26;;;;;;;16.10;8.20;;;;;;;-1.90;100.00;99616.39;108619;1285;22607;-67
2023/01/15 21:51:53;;;;;;;12.80;7.90;;;;;;;-1.91;100.00;99612.69;106751;1285;22640;-67
2023/01/15 21:54:20;;;;;;;15.40;8.80;;;;;;;-2.00;100.00;99607.51;106844;1284;22592;-66
2023/01/15 21:56:47;;;;;;;14.10;8.30;;;;;;;-2.04;100.00;99597.41;106733;1285;22677;-66
2023/01/15 21:59:14;;;;;;;14.60;8.70;;;;;;;-2.03;100.00;99594.76;106821;1285;24292;-66
2023/01/15 22:01:41;;;;;;;15.60;8.70;;;;;;;-2.02;100.00;99592.30;106900;1285;22567;-66
2023/01/15 22:04:08;;;;;;;16.30;9.30;;;;;;;-2.07;100.00;99591.61;106634;1285;22591;-67
2023/01/15 22:06:35;;;;;;;16.80;9.80;;;;;;;-2.07;100.00;99593.25;106567;1284;24236;-66
2023/01/15 22:09:03;;;;;;;15.70;9.10;;;;;;;-2.04;100.00;99593.64;106824;1284;22999;-66
2023/01/15 22:11:43;;;;;;;15.90;9.30;;;;;;;-2.01;100.00;99592.88;106874;1284;26731;-67
2023/01/15 22:14:14;;;;;;;16.30;9.30;;;;;;;-2.04;100.00;99587.73;106946;1284;25300;-67
2023/01/15 22:16:42;;;;;;;16.60;10.10;;;;;;;-2.09;100.00;99582.36;106938;1284;22745;-68
2023/01/15 22:19:09;;;;;;;15.30;8.90;;;;;;;-2.08;100.00;99585.08;107035;1285;24312;-68
2023/01/15 22:21:36;;;;;;;15.50;9.50;;;;;;;-2.06;100.00;99585.71;107124;1284;22612;-68
2023/01/15 22:24:04;;;;;;;17.00;9.80;;;;;;;-2.07;100.00;99589.20;106994;1284;22915;-66
2023/01/15 22:26:31;;;;;;;19.30;11.80;;;;;;;-2.09;100.00;99585.73;107006;1284;22560;-66
2023/01/15 22:28:58;;;;;;;16.00;10.00;;;;;;;-2.06;100.00;99579.84;107011;1284;23441;-68
2023/01/15 22:31:26;;;;;;;15.50;10.20;;;;;;;-2.01;100.00;99584.05;109717;1285;22419;-66
2023/01/15 22:33:53;;;;;;;19.00;10.30;;;;;;;-1.97;100.00;99581.73;109696;1285;22228;-67
2023/01/15 22:36:22;;;;;;;16.90;10.50;;;;;;;-2.00;100.00;99580.99;109678;1285;22273;-68
2023/01/15 22:38:50;;;;;;;16.30;10.70;;;;;;;-2.04;100.00;99581.29;109787;1284;22248;-68
2023/01/15 22:44:06;;;;;;;17.70;10.60;;;;;;;-1.97;100.00;99581.58;109758;1284;22279;-67
2023/01/15 22:46:33;;;;;;;17.70;10.80;;;;;;;-1.94;100.00;99583.08;109753;1284;22228;-67
2023/01/15 22:49:01;;;;;;;18.70;11.30;;;;;;;-1.95;100.00;99582.59;109890;1283;22237;-67
2023/01/15 22:51:28;;;;;;;18.40;11.30;;;;;;;-1.95;100.00;99580.33;109900;1282;22304;-67
2023/01/15 22:53:55;;;;;;;19.50;10.80;;;;;;;-1.91;100.00;99573.73;109893;1282;22221;-67
2023/01/15 22:56:23;;;;;;;21.60;11.60;;;;;;;-1.90;100.00;99571.03;109871;1282;22299;-67
2023/01/15 22:58:54;;;;;;;19.40;11.60;;;;;;;-1.92;100.00;99572.59;109892;1283;22298;-67
2023/01/15 23:01:22;;;;;;;20.20;12.30;;;;;;;-1.94;100.00;99565.92;109885;1282;22982;-67
2023/01/15 23:03:49;;;;;;;20.70;12.10;;;;;;;-1.91;100.00;99558.39;109900;1282;22451;-67
2023/01/15 23:06:21;;;;;;;19.00;11.40;;;;;;;-1.87;100.00;99556.27;109887;1282;22281;-67
2023/01/15 23:08:49;;;;;;;17.50;11.90;;;;;;;-1.87;100.00;99549.34;109899;1282;23019;-67
2023/01/15 23:11:16;;;;;;;21.70;12.90;;;;;;;-1.93;100.00;99547.02;109817;1282;22872;-67
2023/01/15 23:13:43;;;;;;;21.10;12.80;;;;;;;-1.95;100.00;99545.43;109898;1282;22240;-69
2023/01/15 23:16:10;;;;;;;21.70;12.20;;;;;;;-1.92;100.00;99545.33;109861;1282;22195;-67
2023/01/15 23:18:37;;;;;;;19.80;11.30;;;;;;;-1.88;100.00;99544.98;109899;1282;22292;-67
2023/01/15 23:21:05;;;;;;;23.30;13.70;;;;;;;-1.84;100.00;99545.30;109889;1282;22297;-67
2023/01/15 23:23:32;;;;;;;23.70;13.20;;;;;;;-1.85;100.00;99543.16;109869;1282;22230;-67
2023/01/15 23:26:01;;;;;;;26.30;13.50;;;;;;;-1.88;100.00;99544.29;109885;1282;22813;-67
2023/01/15 23:28:28;;;;;;;23.90;13.30;;;;;;;-1.84;100.00;99536.67;109886;1282;23032;-67
2023/01/15 23:30:55;;;;;;;25.20;13.40;;;;;;;-1.80;100.00;99535.75;109882;1282;22431;-69
2023/01/15 23:33:22;;;;;;;26.10;13.70;;;;;;;-1.78;100.00;99534.42;109870;1283;22722;-67
2023/01/15 23:35:49;;;;;;;25.10;14.20;;;;;;;-1.80;100.00;99531.89;109875;1282;23169;-67
2023/01/15 23:38:16;;;;;;;28.00;15.30;;;;;;;-1.83;100.00;99523.54;109881;1282;22210;-67
2023/01/15 23:40:43;;;;;;;23.80;13.80;;;;;;;-1.83;100.00;99513.70;109874;1283;22348;-67
2023/01/15 23:48:43;;;;;;;25.90;13.80;;;;;;;-1.82;100.00;99501.21;106786;1283;22580;-67
2023/01/15 23:51:10;;;;;;;23.50;13.60;;;;;;;-1.86;100.00;99496.73;107014;1281;24259;-67
2023/01/15 23:53:37;;;;;;;19.30;11.60;;;;;;;-1.86;100.00;99498.24;106962;1281;22656;-67
2023/01/15 23:56:04;;;;;;;20.20;12.00;;;;;;;-1.85;100.00;99501.21;107061;1278;25260;-67
2023/01/15 23:58:32;;;;;;;22.30;11.90;;;;;;;-1.88;100.00;99507.42;107120;1280;23234;-66
